createdAt,value
2019-05-13T00:00:34.189Z,1.30
2019-05-13T00:03:03.800Z,1.80
2019-05-13T00:05:33.838Z,1.30
2019-05-13T00:08:03.538Z,1.40
2019-05-13T00:10:34.759Z,1.33
2019-05-13T00:13:04.564Z,1.40
2019-05-13T00:15:34.033Z,1.90
2019-05-13T00:18:03.828Z,1.50
2019-05-13T00:20:33.798Z,1.40
2019-05-13T00:23:04.034Z,1.20
2019-05-13T00:25:34.017Z,1.70
2019-05-13T00:28:04.148Z,1.53
2019-05-13T00:30:34.203Z,1.70
2019-05-13T00:33:03.857Z,1.40
2019-05-13T00:35:33.815Z,1.40
2019-05-13T00:38:03.952Z,1.77
2019-05-13T00:40:35.550Z,1.37
2019-05-13T00:43:04.399Z,1.30
2019-05-13T00:45:34.018Z,1.77
2019-05-13T00:48:04.508Z,1.60
2019-05-13T00:50:33.835Z,1.57
2019-05-13T00:53:04.317Z,1.90
2019-05-13T00:55:34.353Z,1.70
2019-05-13T00:58:04.578Z,1.40
2019-05-13T01:00:34.151Z,1.60
2019-05-13T01:03:04.156Z,1.70
2019-05-13T01:05:34.047Z,1.70
2019-05-13T01:08:04.220Z,1.67
2019-05-13T01:10:34.657Z,1.53
2019-05-13T01:13:04.738Z,2.03
2019-05-13T01:15:34.285Z,1.73
2019-05-13T01:18:03.959Z,1.40
2019-05-13T01:20:34.472Z,1.60
2019-05-13T01:23:03.940Z,1.73
2019-05-13T01:25:33.922Z,2.37
2019-05-13T01:28:04.491Z,2.10
2019-05-13T01:30:34.586Z,1.90
2019-05-13T01:33:04.460Z,1.80
2019-05-13T01:35:34.328Z,1.67
2019-05-13T01:38:04.648Z,1.80
2019-05-13T01:40:34.851Z,1.53
2019-05-13T01:43:03.853Z,2.13
2019-05-13T01:45:33.899Z,1.40
2019-05-13T01:48:06.751Z,1.67
2019-05-13T01:50:33.778Z,1.70
2019-05-13T01:53:04.150Z,1.47
2019-05-13T01:55:34.014Z,1.70
2019-05-13T01:58:04.340Z,1.90
2019-05-13T02:00:35.384Z,2.20
2019-05-13T02:03:04.027Z,1.50
2019-05-13T02:05:33.979Z,1.60
2019-05-13T02:08:04.405Z,1.80
2019-05-13T02:10:53.832Z,1.40
2019-05-13T02:13:24.047Z,1.80
2019-05-13T02:15:54.201Z,1.40
2019-05-13T02:18:24.375Z,1.70
2019-05-13T02:20:55.419Z,1.50
2019-05-13T02:23:24.075Z,2.20
2019-05-13T02:25:54.227Z,1.83
2019-05-13T02:28:24.969Z,1.60
2019-05-13T02:30:55.986Z,1.37
2019-05-13T02:33:24.260Z,1.33
2019-05-13T02:35:53.498Z,1.70
2019-05-13T02:38:28.769Z,1.67
2019-05-13T02:40:53.286Z,1.97
2019-05-13T02:43:23.856Z,1.50
2019-05-13T02:45:53.754Z,1.53
2019-05-13T02:48:23.624Z,1.47
2019-05-13T02:50:53.523Z,1.53
2019-05-13T02:53:23.687Z,1.87
2019-05-13T02:55:53.174Z,1.43
2019-05-13T02:58:24.480Z,1.50
2019-05-13T03:00:53.809Z,1.27
2019-05-13T03:03:23.771Z,1.40
2019-05-13T03:05:53.619Z,1.50
2019-05-13T03:08:39.092Z,1.70
2019-05-13T03:10:53.914Z,2.00
2019-05-13T03:13:24.004Z,2.00
2019-05-13T03:15:54.807Z,1.57
2019-05-13T03:18:23.360Z,1.50
2019-05-13T03:20:52.901Z,1.90
2019-05-13T03:23:22.707Z,1.67
2019-05-13T03:25:53.780Z,2.00
2019-05-13T03:28:25.903Z,1.70
2019-05-13T03:30:56.198Z,1.80
2019-05-13T03:33:27.759Z,1.80
2019-05-13T03:35:56.548Z,1.70
2019-05-13T03:38:26.071Z,1.93
2019-05-13T03:40:57.399Z,1.80
2019-05-13T03:43:32.232Z,1.60
2019-05-13T03:46:03.389Z,1.87
2019-05-13T03:48:33.737Z,1.60
2019-05-13T03:51:02.812Z,1.90
2019-05-13T03:53:32.576Z,1.50
2019-05-13T03:56:02.876Z,1.53
2019-05-13T03:58:32.510Z,1.67
2019-05-13T04:01:02.813Z,1.97
2019-05-13T04:03:33.105Z,2.20
2019-05-13T04:06:03.523Z,1.50
2019-05-13T04:08:32.864Z,1.70
2019-05-13T04:11:02.955Z,1.80
2019-05-13T04:13:33.567Z,2.20
2019-05-13T04:16:03.910Z,1.87
2019-05-13T04:18:32.863Z,1.97
2019-05-13T04:21:02.822Z,1.70
2019-05-13T04:23:32.563Z,1.87
2019-05-13T04:26:03.064Z,1.57
2019-05-13T04:28:33.260Z,2.00
2019-05-13T04:31:03.477Z,1.70
2019-05-13T04:33:33.376Z,1.70
2019-05-13T04:36:02.846Z,2.00
2019-05-13T04:38:33.038Z,2.00
2019-05-13T04:41:03.689Z,2.07
2019-05-13T04:43:34.697Z,2.10
2019-05-13T04:46:02.806Z,2.07
2019-05-13T04:48:34.056Z,2.17
2019-05-13T04:51:03.043Z,2.07
2019-05-13T04:53:33.571Z,1.70
2019-05-13T04:56:03.350Z,1.90
2019-05-13T04:58:32.417Z,1.93
2019-05-13T05:01:19.263Z,2.00
2019-05-13T05:04:03.681Z,2.03
2019-05-13T05:06:35.709Z,1.70
2019-05-13T05:09:12.661Z,2.30
2019-05-13T05:11:49.252Z,2.00
2019-05-13T05:14:24.069Z,1.90
2019-05-13T05:17:22.615Z,2.57
2019-05-13T05:20:04.213Z,2.40
2019-05-13T05:22:42.015Z,1.77
2019-05-13T05:25:32.342Z,2.70
2019-05-13T05:28:06.947Z,1.70
2019-05-13T05:31:12.006Z,2.30
2019-05-13T05:34:18.094Z,1.87
2019-05-13T05:36:58.591Z,2.10
2019-05-13T05:39:28.485Z,1.67
2019-05-13T05:41:58.388Z,1.80
2019-05-13T05:44:32.096Z,1.70
2019-05-13T05:47:02.814Z,2.53
2019-05-13T05:49:32.209Z,2.00
2019-05-13T05:52:06.338Z,2.40
2019-05-13T05:54:38.148Z,1.80
2019-05-13T05:57:08.117Z,1.80
2019-05-13T05:59:37.540Z,1.50
2019-05-13T06:02:07.473Z,1.77
2019-05-13T06:04:36.639Z,1.80
2019-05-13T06:07:05.607Z,2.20
2019-05-13T06:09:34.316Z,1.90
2019-05-13T06:12:02.978Z,2.00
2019-05-13T06:14:32.691Z,1.73
2019-05-13T06:17:02.768Z,1.73
2019-05-13T06:19:32.042Z,1.90
2019-05-13T06:22:02.348Z,2.13
2019-05-13T06:24:31.614Z,2.37
2019-05-13T06:27:01.623Z,1.43
2019-05-13T06:29:31.684Z,2.10
2019-05-13T06:32:15.184Z,1.53
2019-05-13T06:34:32.830Z,1.40
2019-05-13T06:37:01.998Z,1.37
2019-05-13T06:39:31.888Z,1.57
2019-05-13T06:42:02.782Z,1.60
2019-05-13T06:44:31.787Z,1.73
2019-05-13T06:47:02.432Z,1.53
2019-05-13T06:49:32.325Z,1.40
2019-05-13T06:52:01.870Z,1.87
2019-05-13T06:54:32.987Z,1.80
2019-05-13T06:57:04.653Z,1.30
2019-05-13T06:59:31.885Z,1.73
2019-05-13T07:02:02.110Z,1.40
2019-05-13T07:04:32.673Z,1.10
2019-05-13T07:07:12.402Z,1.57
2019-05-13T07:09:32.566Z,1.37
2019-05-13T07:12:03.279Z,1.50
2019-05-13T07:14:32.592Z,1.47
2019-05-13T07:17:02.230Z,1.07
2019-05-13T07:19:32.373Z,1.40
2019-05-13T07:22:02.867Z,1.50
2019-05-13T07:24:32.428Z,1.63
2019-05-13T07:27:01.858Z,1.30
2019-05-13T07:29:32.506Z,1.23
2019-05-13T07:32:01.862Z,1.80
2019-05-13T07:34:33.612Z,2.20
2019-05-13T07:37:01.991Z,1.20
2019-05-13T07:39:32.679Z,1.30
2019-05-13T07:42:05.438Z,1.40
2019-05-13T07:44:32.534Z,1.37
2019-05-13T07:47:03.419Z,1.60
2019-05-13T07:49:31.762Z,1.43
2019-05-13T07:52:01.657Z,1.30
2019-05-13T07:54:32.868Z,1.20
2019-05-13T07:57:02.011Z,1.27
2019-05-13T07:59:31.834Z,1.30
2019-05-13T08:02:02.055Z,1.13
2019-05-13T08:04:33.619Z,1.30
2019-05-13T08:07:02.147Z,1.10
2019-05-13T08:09:32.010Z,1.20
2019-05-13T08:12:09.873Z,1.57
2019-05-13T08:14:32.793Z,1.37
2019-05-13T08:17:02.710Z,1.30
2019-05-13T08:19:32.541Z,1.37
2019-05-13T08:22:02.330Z,1.27
2019-05-13T08:24:31.671Z,1.33
2019-05-13T08:27:02.035Z,1.43
2019-05-13T08:29:32.721Z,1.20
2019-05-13T08:32:02.707Z,1.20
2019-05-13T08:34:32.880Z,1.27
2019-05-13T08:37:03.130Z,1.50
2019-05-13T08:39:36.563Z,1.37
2019-05-13T08:42:12.718Z,1.50
2019-05-13T08:44:32.776Z,1.00
2019-05-13T08:47:02.919Z,1.30
2019-05-13T08:49:32.718Z,1.50
2019-05-13T08:52:01.844Z,1.33
2019-05-13T08:54:32.853Z,1.20
2019-05-13T08:57:02.822Z,1.10
2019-05-13T08:59:31.940Z,1.43
2019-05-13T09:02:02.884Z,1.10
2019-05-13T09:04:31.718Z,1.30
2019-05-13T09:07:02.162Z,1.30
2019-05-13T09:09:31.696Z,1.13
2019-05-13T09:12:02.583Z,1.27
2019-05-13T09:14:32.423Z,1.03
2019-05-13T09:17:01.940Z,1.33
2019-05-13T09:19:32.186Z,1.30
2019-05-13T09:22:02.884Z,1.50
2019-05-13T09:24:37.255Z,1.20
2019-05-13T09:27:02.059Z,1.23
2019-05-13T09:29:32.244Z,1.30
2019-05-13T09:32:03.785Z,1.00
2019-05-13T09:34:32.871Z,1.07
2019-05-13T09:37:02.777Z,1.20
2019-05-13T09:39:32.407Z,1.30
2019-05-13T09:42:02.744Z,1.40
2019-05-13T09:44:32.975Z,1.30
2019-05-13T09:47:02.830Z,1.13
2019-05-13T09:49:32.765Z,1.03
2019-05-13T09:52:02.103Z,1.67
2019-05-13T09:54:32.922Z,1.10
2019-05-13T09:57:01.802Z,0.90
2019-05-13T09:59:31.885Z,1.40
2019-05-13T10:02:03.022Z,1.30
2019-05-13T10:04:31.795Z,1.47
2019-05-13T10:07:02.166Z,1.10
2019-05-13T10:09:32.559Z,1.07
2019-05-13T10:12:03.153Z,1.00
2019-05-13T10:14:32.949Z,1.30
2019-05-13T10:17:06.049Z,1.20
2019-05-13T10:19:32.582Z,1.00
2019-05-13T10:22:01.814Z,1.20
2019-05-13T10:24:32.738Z,1.40
2019-05-13T10:27:02.560Z,1.50
2019-05-13T10:29:32.238Z,1.00
2019-05-13T10:32:02.728Z,1.37
2019-05-13T10:34:32.423Z,1.03
2019-05-13T10:37:02.729Z,1.40
2019-05-13T10:39:31.865Z,1.27
2019-05-13T10:42:03.463Z,1.20
2019-05-13T10:44:30.873Z,1.13
2019-05-13T10:46:59.457Z,1.23
2019-05-13T10:49:32.741Z,0.97
2019-05-13T10:52:02.841Z,1.20
2019-05-13T10:54:32.283Z,1.30
2019-05-13T10:57:03.556Z,1.20
2019-05-13T10:59:30.729Z,1.47
2019-05-13T11:02:02.088Z,1.33
2019-05-13T11:04:32.016Z,1.50
2019-05-13T11:07:07.866Z,1.20
2019-05-13T11:09:36.153Z,1.33
2019-05-13T11:12:04.919Z,1.23
2019-05-13T11:14:33.816Z,1.10
2019-05-13T11:17:02.594Z,0.90
2019-05-13T11:19:36.097Z,1.03
2019-05-13T11:22:02.729Z,1.10
2019-05-13T11:24:32.428Z,1.20
2019-05-13T11:27:02.780Z,1.10
2019-05-13T11:29:32.533Z,1.30
2019-05-13T11:32:02.710Z,1.00
2019-05-13T11:34:37.682Z,1.03
2019-05-13T11:37:06.417Z,1.47
2019-05-13T11:39:34.957Z,1.30
2019-05-13T11:42:03.619Z,1.33
2019-05-13T11:44:32.517Z,1.20
2019-05-13T11:47:02.439Z,0.97
2019-05-13T11:49:31.805Z,1.30
2019-05-13T11:52:02.707Z,1.30
2019-05-13T11:54:30.808Z,1.10
2019-05-13T11:59:32.676Z,1.10
2019-05-13T12:02:03.942Z,1.00
2019-05-13T12:04:33.129Z,0.90
2019-05-13T12:07:03.564Z,0.90
2019-05-13T12:09:32.018Z,1.17
2019-05-13T12:12:03.181Z,1.07
2019-05-13T12:14:44.297Z,1.13
2019-05-13T12:17:02.260Z,1.20
2019-05-13T12:19:31.033Z,1.17
2019-05-13T12:22:02.662Z,0.97
2019-05-13T12:24:29.980Z,1.27
2019-05-13T12:26:58.639Z,1.17
2019-05-13T12:29:39.036Z,1.20
2019-05-13T12:32:07.613Z,1.27
2019-05-13T12:34:40.986Z,0.80
2019-05-13T12:37:06.826Z,1.00
2019-05-13T12:39:35.558Z,1.37
2019-05-13T12:42:04.229Z,0.90
2019-05-13T12:44:33.123Z,1.00
2019-05-13T12:47:03.265Z,0.90
2019-05-13T12:49:36.248Z,0.77
2019-05-13T12:52:04.634Z,1.13
2019-05-13T12:54:33.532Z,0.77
2019-05-13T12:57:03.592Z,1.30
2019-05-13T12:59:32.399Z,1.37
2019-05-13T13:02:03.263Z,0.97
2019-05-13T13:04:33.542Z,0.90
2019-05-13T13:07:01.403Z,0.90
2019-05-13T13:09:33.218Z,1.03
2019-05-13T13:12:00.259Z,0.97
2019-05-13T13:14:38.210Z,0.97
2019-05-13T13:17:03.477Z,1.07
2019-05-13T13:19:29.550Z,1.03
2019-05-13T13:22:03.276Z,0.83
2019-05-13T13:24:37.312Z,1.13
2019-05-13T13:27:14.741Z,0.90
2019-05-13T13:29:36.494Z,1.13
2019-05-13T13:32:05.190Z,0.90
2019-05-13T13:34:33.962Z,0.90
2019-05-13T13:37:05.073Z,1.20
2019-05-13T13:39:32.748Z,1.10
2019-05-13T13:42:05.412Z,0.83
2019-05-13T13:44:35.035Z,1.13
2019-05-13T13:47:01.912Z,0.70
2019-05-13T13:49:34.856Z,0.83
2019-05-13T13:52:00.717Z,1.13
2019-05-13T13:54:32.789Z,1.10
2019-05-13T13:57:01.875Z,0.93
2019-05-13T13:59:35.580Z,0.83
2019-05-13T14:02:05.137Z,1.13
2019-05-13T14:04:30.234Z,1.20
2019-05-13T14:07:03.201Z,1.07
2019-05-13T14:09:29.227Z,1.20
2019-05-13T14:11:57.888Z,1.50
2019-05-13T14:14:26.445Z,0.97
2019-05-13T14:16:55.054Z,1.10
2019-05-13T14:19:23.630Z,0.90
2019-05-13T14:22:11.789Z,1.00
2019-05-13T14:24:22.468Z,0.97
2019-05-13T14:26:52.396Z,0.90
2019-05-13T14:29:36.120Z,1.07
2019-05-13T14:31:52.100Z,1.00
2019-05-13T14:34:20.999Z,1.07
2019-05-13T14:36:51.609Z,0.93
2019-05-13T14:39:22.047Z,0.90
2019-05-13T14:41:51.615Z,0.90
2019-05-13T14:44:21.905Z,1.07
2019-05-13T14:46:52.319Z,1.23
2019-05-13T14:49:22.461Z,1.23
2019-05-13T14:51:52.288Z,1.40
2019-05-13T14:54:21.367Z,1.10
2019-05-13T14:56:52.038Z,1.30
2019-05-13T14:59:22.116Z,1.00
2019-05-13T15:01:51.837Z,1.13
2019-05-13T15:04:22.178Z,0.93
2019-05-13T15:06:51.809Z,1.00
2019-05-13T15:09:22.271Z,1.53
2019-05-13T15:11:52.747Z,0.90
2019-05-13T15:14:22.018Z,0.80
2019-05-13T15:17:02.217Z,1.20
2019-05-13T15:19:22.351Z,0.80
2019-05-13T15:21:52.099Z,0.80
2019-05-13T15:24:21.377Z,1.13
2019-05-13T15:26:51.683Z,0.90
2019-05-13T15:29:22.368Z,0.93
2019-05-13T15:31:51.471Z,1.00
2019-05-13T15:34:20.431Z,0.83
2019-05-13T15:36:50.769Z,1.00
2019-05-13T15:39:19.256Z,1.10
2019-05-13T15:41:47.876Z,1.00
2019-05-13T15:44:16.426Z,1.20
2019-05-13T15:46:45.022Z,1.13
2019-05-13T15:49:13.566Z,1.00
2019-05-13T15:51:42.419Z,1.03
2019-05-13T15:54:15.380Z,0.90
2019-05-13T15:56:41.294Z,0.97
2019-05-13T15:59:12.392Z,1.03
2019-05-13T16:01:41.447Z,1.30
2019-05-13T16:04:12.829Z,1.23
2019-05-13T16:06:45.378Z,0.94
2019-05-13T16:09:13.934Z,1.00
2019-05-13T16:11:42.515Z,1.10
2019-05-13T16:14:11.870Z,1.10
2019-05-13T16:16:41.746Z,1.00
2019-05-13T16:19:10.613Z,0.90
2019-05-13T16:21:41.362Z,1.03
2019-05-13T16:24:11.937Z,1.07
2019-05-13T16:26:42.696Z,1.20
2019-05-13T16:29:12.504Z,1.00
2019-05-13T16:31:41.559Z,1.30
2019-05-13T16:34:12.804Z,1.37
2019-05-13T16:36:42.800Z,1.20
2019-05-13T16:39:12.322Z,1.17
2019-05-13T16:41:42.640Z,1.77
2019-05-13T16:44:11.927Z,1.30
2019-05-13T16:46:42.444Z,1.50
2019-05-13T16:49:12.101Z,1.30
2019-05-13T16:51:42.678Z,1.10
2019-05-13T16:54:11.264Z,1.20
2019-05-13T16:56:42.063Z,1.20
2019-05-13T16:59:10.211Z,1.50
2019-05-13T17:01:38.797Z,1.20
2019-05-13T17:04:07.886Z,1.20
2019-05-13T17:06:36.841Z,1.40
2019-05-13T17:09:07.435Z,1.50
2019-05-13T17:11:36.226Z,1.07
2019-05-13T17:14:05.924Z,1.10
2019-05-13T17:16:34.805Z,1.20
2019-05-13T17:19:03.502Z,1.30
2019-05-13T17:21:32.165Z,1.37
2019-05-13T17:24:01.540Z,1.37
2019-05-13T17:26:32.740Z,1.40
2019-05-13T17:29:01.489Z,1.40
2019-05-13T17:31:32.377Z,1.33
2019-05-13T17:34:01.546Z,1.10
2019-05-13T17:36:32.424Z,1.30
2019-05-13T17:39:01.811Z,1.10
2019-05-13T17:41:32.073Z,1.13
2019-05-13T17:44:02.387Z,1.30
2019-05-13T17:46:32.589Z,1.00
2019-05-13T17:49:01.242Z,1.10
2019-05-13T17:51:30.088Z,1.10
2019-05-13T17:54:01.250Z,1.60
2019-05-13T17:56:28.844Z,1.03
2019-05-13T17:58:57.438Z,1.13
2019-05-13T18:01:25.995Z,1.10
2019-05-13T18:03:54.605Z,1.30
2019-05-13T18:06:23.194Z,1.20
2019-05-13T18:08:51.891Z,1.30
2019-05-13T18:11:21.923Z,1.00
2019-05-13T18:13:51.851Z,1.40
2019-05-13T18:16:21.722Z,1.50
2019-05-13T18:18:52.135Z,1.00
2019-05-13T18:21:20.814Z,1.30
2019-05-13T18:23:51.951Z,1.70
2019-05-13T18:26:21.472Z,1.30
2019-05-13T18:28:51.441Z,1.57
2019-05-13T18:31:20.131Z,1.17
2019-05-13T18:33:50.947Z,1.50
2019-05-13T18:36:19.003Z,1.17
2019-05-13T18:38:47.655Z,1.60
2019-05-13T18:41:22.385Z,1.47
2019-05-13T18:43:54.570Z,1.40
2019-05-13T18:46:21.976Z,1.20
2019-05-13T18:48:58.591Z,1.10
2019-05-13T18:51:21.195Z,1.27
2019-05-13T18:53:51.789Z,1.10
2019-05-13T18:56:21.784Z,1.10
2019-05-13T18:58:50.487Z,1.20
2019-05-13T19:01:21.424Z,1.03
2019-05-13T19:03:49.284Z,1.13
2019-05-13T19:06:17.840Z,1.10
2019-05-13T19:08:46.456Z,1.90
2019-05-13T19:11:15.051Z,1.40
2019-05-13T19:13:43.750Z,1.03
2019-05-13T19:16:12.413Z,1.70
2019-05-13T19:18:42.339Z,1.60
2019-05-13T19:21:11.296Z,1.23
2019-05-13T19:23:41.800Z,1.40
2019-05-13T19:26:11.318Z,1.20
2019-05-13T19:28:40.238Z,1.80
2019-05-13T19:31:11.394Z,1.03
2019-05-13T19:33:41.475Z,1.30
2019-05-13T19:36:11.625Z,1.70
2019-05-13T19:38:42.095Z,1.57
2019-05-13T19:41:11.666Z,1.40
2019-05-13T19:43:42.027Z,1.40
2019-05-13T19:46:10.648Z,1.03
2019-05-13T19:48:41.562Z,1.30
2019-05-13T19:51:09.498Z,1.63
2019-05-13T19:53:38.056Z,1.10
2019-05-13T19:56:06.656Z,1.67
2019-05-13T19:58:35.218Z,1.40
2019-05-13T20:01:03.933Z,1.27
2019-05-13T20:03:32.514Z,1.33
2019-05-13T20:06:02.243Z,1.60
2019-05-13T20:08:32.105Z,1.40
2019-05-13T20:11:02.103Z,1.70
2019-05-13T20:13:30.873Z,1.60
2019-05-13T20:16:01.421Z,1.30
2019-05-13T20:18:31.768Z,1.50
2019-05-13T20:21:01.247Z,1.30
2019-05-13T20:23:31.963Z,1.50
2019-05-13T20:26:00.366Z,1.50
2019-05-13T20:28:31.454Z,1.60
2019-05-13T20:31:01.646Z,1.53
2019-05-13T20:33:31.971Z,1.47
2019-05-13T20:36:01.629Z,1.30
2019-05-13T20:38:31.633Z,1.60
2019-05-13T20:41:01.480Z,1.50
2019-05-13T20:43:32.751Z,1.40
2019-05-13T20:46:01.976Z,1.47
2019-05-13T20:48:32.032Z,1.80
2019-05-13T20:51:02.499Z,1.27
2019-05-13T20:53:31.134Z,1.50
2019-05-13T20:56:01.709Z,1.50
2019-05-13T20:58:31.814Z,1.20
2019-05-13T21:01:02.441Z,1.40
2019-05-13T21:03:31.563Z,1.30
2019-05-13T21:06:00.397Z,1.30
2019-05-13T21:08:29.158Z,1.30
2019-05-13T21:10:57.897Z,2.00
2019-05-13T21:13:26.575Z,1.50
2019-05-13T21:15:55.353Z,1.50
2019-05-13T21:18:23.911Z,1.73
2019-05-13T21:20:52.504Z,1.70
2019-05-13T21:23:21.743Z,1.73
2019-05-13T21:25:51.038Z,1.80
2019-05-13T21:28:21.845Z,1.80
2019-05-13T21:30:51.423Z,1.90
2019-05-13T21:33:22.167Z,1.90
2019-05-13T21:35:51.188Z,1.73
2019-05-13T21:38:22.270Z,1.30
2019-05-13T21:40:52.077Z,1.70
2019-05-13T21:43:21.632Z,1.80
2019-05-13T21:45:52.087Z,1.50
2019-05-13T21:48:21.765Z,1.70
2019-05-13T21:50:51.647Z,1.70
2019-05-13T21:53:21.729Z,1.60
2019-05-13T21:55:52.065Z,1.80
2019-05-13T21:58:22.221Z,1.37
2019-05-13T22:00:52.294Z,1.90
2019-05-13T22:03:21.128Z,1.30
2019-05-13T22:05:51.561Z,1.60
2019-05-13T22:08:21.615Z,1.70
2019-05-13T22:10:52.349Z,1.73
2019-05-13T22:13:20.571Z,1.60
2019-05-13T22:15:49.133Z,1.63
2019-05-13T22:18:17.868Z,1.63
2019-05-13T22:20:50.435Z,1.70
2019-05-13T22:23:16.748Z,1.50
2019-05-13T22:25:45.415Z,1.50
2019-05-13T22:28:13.986Z,1.70
2019-05-13T22:30:42.584Z,1.70
2019-05-13T22:33:12.265Z,1.57
2019-05-13T22:35:41.622Z,1.90
2019-05-13T22:38:12.325Z,2.03
2019-05-13T22:40:41.926Z,1.63
2019-05-13T22:43:12.205Z,1.93
2019-05-13T22:45:41.944Z,2.07
2019-05-13T22:48:14.570Z,1.63
2019-05-13T22:50:42.667Z,1.60
2019-05-13T22:53:12.075Z,2.13
2019-05-13T22:55:41.770Z,1.70
2019-05-13T22:58:10.630Z,2.00
2019-05-13T23:00:39.279Z,1.60
2019-05-13T23:03:07.889Z,1.80
2019-05-13T23:05:36.765Z,2.13
2019-05-13T23:08:05.324Z,1.53
2019-05-13T23:10:33.922Z,1.70
2019-05-13T23:13:02.483Z,1.77
2019-05-13T23:15:31.138Z,1.90
2019-05-13T23:18:01.264Z,2.00
2019-05-13T23:20:31.788Z,2.10
2019-05-13T23:23:01.290Z,2.03
2019-05-13T23:25:32.004Z,2.20
2019-05-13T23:28:00.302Z,2.30
2019-05-13T23:30:31.059Z,2.30
2019-05-13T23:32:59.157Z,2.00
2019-05-13T23:35:27.740Z,2.20
2019-05-13T23:37:56.309Z,2.60
2019-05-13T23:40:24.854Z,2.50
2019-05-13T23:42:53.566Z,2.13
2019-05-13T23:45:22.249Z,2.73
2019-05-13T23:47:52.004Z,2.80
2019-05-13T23:50:21.526Z,2.33
2019-05-13T23:52:51.166Z,2.57
2019-05-13T23:55:19.987Z,2.60
2019-05-13T23:57:48.558Z,2.50
